Time;durP1;ratioP1;P1;durP2;ratioP2;P2;SDS_P1;SDS_P2;PMS_P1;PMS_P2;Temp;Humidity;BMP_temperature;BMP_pressure;BME280_temperature;BME280_humidity;BME280_pressure;Samples;Min_cycle;Max_cycle;Signal;HPM_P1;HPM_P2
2023/06/29 00:02:02;;;;;;;3.60;2.22;;;;;;;26.97;51.84;101135.50;4917357;29;20051;-52
2023/06/29 00:04:32;;;;;;;3.38;2.38;;;;;;;26.99;52.04;101133.47;4917590;29;20404;-55
2023/06/29 00:07:02;;;;;;;5.30;2.70;;;;;;;26.99;51.71;101130.75;4917428;29;20055;-58
2023/06/29 00:09:30;;;;;;;4.25;2.33;;;;;;;27.00;52.00;101131.59;4917453;29;20052;-58
2023/06/29 00:11:57;;;;;;;4.47;2.60;;;;;;;27.00;51.88;101132.44;4917460;29;20044;-58
2023/06/29 00:14:25;;;;;;;4.13;2.67;;;;;;;27.00;52.04;101124.28;4915951;29;20056;-52
2023/06/29 00:16:52;;;;;;;4.47;2.63;;;;;;;27.00;51.79;101124.28;4917013;29;20067;-58
2023/06/29 00:19:20;;;;;;;4.45;2.58;;;;;;;27.00;51.98;101120.75;4917312;29;20400;-59
2023/06/29 00:21:48;;;;;;;3.60;2.40;;;;;;;27.01;51.99;101128.69;4916928;29;20044;-58
2023/06/29 00:24:15;;;;;;;3.97;2.58;;;;;;;27.02;52.10;101132.25;4917081;29;20385;-54
2023/06/29 00:26:43;;;;;;;3.83;2.60;;;;;;;27.03;52.19;101131.25;4917331;29;20052;-51
2023/06/29 00:29:10;;;;;;;4.32;2.90;;;;;;;27.02;51.99;101127.69;4917221;29;20489;-53
2023/06/29 00:31:37;;;;;;;4.18;2.65;;;;;;;27.03;52.05;101125.81;4917139;29;20044;-53
2023/06/29 00:34:05;;;;;;;4.47;2.70;;;;;;;27.03;52.08;101131.25;4917320;29;20365;-51
2023/06/29 00:36:32;;;;;;;4.25;2.33;;;;;;;27.03;51.91;101134.81;4918058;29;20052;-58
2023/06/29 00:39:00;;;;;;;3.33;2.60;;;;;;;27.04;52.06;101131.06;4920934;29;20496;-58
2023/06/29 00:41:27;;;;;;;3.38;2.60;;;;;;;27.04;52.00;101131.06;4920823;29;20048;-59
2023/06/29 00:43:55;;;;;;;3.33;2.33;;;;;;;27.05;51.88;101137.34;4920606;29;20058;-59
2023/06/29 00:46:24;;;;;;;4.45;2.50;;;;;;;27.05;52.00;101138.19;4919514;29;20056;-52
2023/06/29 00:48:52;;;;;;;4.05;2.83;;;;;;;27.04;51.86;101136.50;4919494;29;20059;-54
2023/06/29 00:51:20;;;;;;;4.57;2.22;;;;;;;27.05;51.95;101132.75;4919434;29;20063;-53
2023/06/29 00:53:47;;;;;;;2.75;1.90;;;;;;;27.06;52.02;101141.75;4919307;29;20052;-54
2023/06/29 00:56:15;;;;;;;4.68;2.53;;;;;;;27.05;52.31;101140.91;4920923;29;20052;-52
2023/06/29 00:58:43;;;;;;;5.05;2.88;;;;;;;27.06;51.97;101141.75;4920568;29;20047;-52
2023/06/29 01:01:10;;;;;;;3.97;2.42;;;;;;;27.04;52.17;101141.94;4920335;29;20051;-51
2023/06/29 01:03:40;;;;;;;6.15;2.47;;;;;;;27.06;52.07;101139.03;4919218;29;20063;-51
2023/06/29 01:06:13;;;;;;;3.50;2.40;;;;;;;27.06;51.98;101142.63;4919038;29;20396;-58
2023/06/29 01:08:46;;;;;;;4.97;2.90;;;;;;;27.06;51.92;101145.34;4920579;29;20048;-58
2023/06/29 01:11:14;;;;;;;5.03;2.65;;;;;;;27.06;51.94;101142.63;4918917;29;20052;-58
2023/06/29 01:13:43;;;;;;;3.20;2.20;;;;;;;27.05;52.18;101146.34;4919015;29;20075;-58
2023/06/29 01:16:14;;;;;;;4.03;2.83;;;;;;;27.06;52.13;101148.06;4920290;29;20052;-52
2023/06/29 01:18:45;;;;;;;3.95;2.53;;;;;;;27.06;51.78;101141.75;4920358;29;20044;-51
2023/06/29 01:21:14;;;;;;;3.85;2.30;;;;;;;27.06;51.80;101148.06;4919052;29;20052;-54
2023/06/29 01:23:45;;;;;;;3.83;2.70;;;;;;;27.06;51.88;101133.59;4920167;29;20052;-51
2023/06/29 01:26:12;;;;;;;3.42;2.42;;;;;;;27.05;52.00;101138.19;4920093;29;20411;-52
2023/06/29 01:28:40;;;;;;;3.65;2.42;;;;;;;27.07;51.85;101138.03;4920285;29;20048;-54
2023/06/29 01:31:09;;;;;;;4.22;2.58;;;;;;;27.06;51.98;101142.63;4920239;29;20400;-55
2023/06/29 01:33:37;;;;;;;3.55;2.72;;;;;;;27.06;51.88;101142.63;4920102;29;20052;-53
2023/06/29 01:36:17;;;;;;;4.43;2.47;;;;;;;27.07;51.96;101133.44;4920037;29;20048;-57
2023/06/29 01:39:16;;;;;;;3.50;2.28;;;;;;;27.07;51.66;101138.03;4920032;29;20481;-58
2023/06/29 01:41:45;;;;;;;3.53;2.42;;;;;;;27.07;52.05;101138.03;4919815;29;20059;-58
2023/06/29 01:44:16;;;;;;;4.68;2.50;;;;;;;27.08;51.93;101137.00;4918162;29;20052;-58
2023/06/29 01:46:43;;;;;;;3.78;2.35;;;;;;;27.08;51.80;101137.84;4919939;29;20092;-58
2023/06/29 01:49:13;;;;;;;3.95;2.70;;;;;;;27.07;51.81;101136.16;4917889;29;20052;-58
2023/06/29 01:51:40;;;;;;;3.65;2.55;;;;;;;27.07;51.64;101141.59;4919676;29;20049;-58
2023/06/29 01:54:08;;;;;;;3.70;2.45;;;;;;;27.07;51.84;101130.72;4919754;29;20052;-58
2023/06/29 01:56:35;;;;;;;3.80;2.50;;;;;;;27.08;51.84;101134.28;4919816;29;20477;-58
2023/06/29 01:59:03;;;;;;;4.22;2.00;;;;;;;27.07;52.01;101133.44;4918283;29;20048;-58
2023/06/29 02:01:30;;;;;;;3.35;2.05;;;;;;;27.08;51.65;101135.13;4918258;29;20048;-58
2023/06/29 02:03:59;;;;;;;4.38;2.72;;;;;;;27.08;51.67;101134.28;4919735;29;20055;-58
2023/06/29 02:06:27;;;;;;;5.00;3.03;;;;;;;27.08;51.91;101131.56;4919603;29;20052;-54
2023/06/29 02:08:54;;;;;;;3.78;2.60;;;;;;;27.08;51.94;101128.84;4919280;29;20490;-55
2023/06/29 02:11:21;;;;;;;5.20;2.88;;;;;;;27.07;51.83;101125.28;4919598;29;20047;-54
2023/06/29 02:13:49;;;;;;;4.55;2.70;;;;;;;27.08;51.85;101126.97;4917986;29;20056;-53
2023/06/29 02:16:16;;;;;;;3.47;2.22;;;;;;;27.09;51.96;101131.38;4917788;29;20064;-58
2023/06/29 02:18:44;;;;;;;2.97;2.38;;;;;;;27.08;51.78;101131.56;4919189;29;20055;-58
2023/06/29 02:21:11;;;;;;;4.53;2.92;;;;;;;27.09;51.73;101130.53;4919155;29;20040;-58
2023/06/29 02:23:38;;;;;;;3.95;2.78;;;;;;;27.08;51.79;101123.41;4919117;29;20059;-58
2023/06/29 02:26:06;;;;;;;4.32;2.40;;;;;;;27.08;51.92;101126.13;4917569;29;20052;-53
2023/06/29 02:28:36;;;;;;;3.67;2.70;;;;;;;27.08;52.10;101118.84;4918848;29;20481;-54
2023/06/29 02:31:03;;;;;;;5.80;2.75;;;;;;;27.09;51.86;101117.81;4918943;29;20074;-54
2023/06/29 02:33:30;;;;;;;4.30;2.60;;;;;;;27.09;51.72;101123.22;4917559;29;20052;-52
2023/06/29 02:35:58;;;;;;;3.60;2.47;;;;;;;27.09;52.11;101119.66;4918885;29;20048;-60
2023/06/29 02:38:25;;;;;;;3.78;2.58;;;;;;;27.09;52.17;101130.53;4917697;29;20052;-60
2023/06/29 02:40:53;;;;;;;4.85;2.47;;;;;;;27.07;52.08;101119.03;4918755;29;20397;-60
2023/06/29 02:43:20;;;;;;;5.35;2.63;;;;;;;27.06;51.89;101122.75;4916970;29;20056;-59
2023/06/29 02:45:47;;;;;;;4.05;2.47;;;;;;;27.04;51.97;101122.09;4918624;29;20055;-59
2023/06/29 02:48:15;;;;;;;4.55;2.65;;;;;;;27.02;52.05;101118.69;4917304;29;20500;-59
2023/06/29 02:50:42;;;;;;;4.28;2.53;;;;;;;27.01;52.09;101125.13;4918507;29;20043;-59
2023/06/29 02:53:13;;;;;;;4.63;2.80;;;;;;;26.99;51.99;101122.63;4917429;29;20531;-59
2023/06/29 02:55:40;;;;;;;4.80;2.55;;;;;;;26.98;52.15;101120.94;4918362;29;20052;-58
2023/06/29 02:58:08;;;;;;;5.57;2.38;;;;;;;26.96;52.21;101127.53;4918323;29;20055;-58
2023/06/29 03:00:36;;;;;;;4.20;2.88;;;;;;;26.95;52.13;101125.84;4916441;29;20056;-58
2023/06/29 03:03:04;;;;;;;4.97;2.42;;;;;;;26.94;52.15;101125.00;4916822;29;20048;-58
2023/06/29 03:05:32;;;;;;;3.10;2.35;;;;;;;26.94;52.41;101122.31;4917396;29;20063;-59
2023/06/29 03:08:03;;;;;;;4.38;2.80;;;;;;;26.92;52.29;101116.19;4917084;29;20051;-60
2023/06/29 03:10:30;;;;;;;4.28;2.83;;;;;;;26.92;52.24;101116.19;4918635;29;20052;-59
2023/06/29 03:12:58;;;;;;;4.38;2.85;;;;;;;26.91;52.37;101119.91;4918465;29;20388;-59
2023/06/29 03:15:25;;;;;;;3.47;2.60;;;;;;;26.90;52.28;101117.38;4918076;29;20052;-59
2023/06/29 03:17:53;;;;;;;7.25;2.72;;;;;;;26.86;52.32;101112.31;4918243;29;20059;-59
2023/06/29 03:20:20;;;;;;;3.67;2.75;;;;;;;26.87;51.98;101124.00;4918228;29;20055;-58
2023/06/29 03:22:47;;;;;;;4.32;2.55;;;;;;;26.85;52.01;101128.75;4918280;29;20056;-57
2023/06/29 03:25:15;;;;;;;4.70;2.78;;;;;;;26.84;52.14;101127.91;4918034;29;20503;-58
2023/06/29 03:27:42;;;;;;;4.32;2.50;;;;;;;26.85;52.24;101126.03;4918102;29;20056;-57
2023/06/29 03:30:10;;;;;;;3.58;2.50;;;;;;;26.84;52.08;101129.78;4917958;29;20063;-57
2023/06/29 03:32:37;;;;;;;5.00;2.72;;;;;;;26.84;52.16;101130.63;4918073;29;20052;-57
2023/06/29 03:35:07;;;;;;;4.35;2.90;;;;;;;26.83;52.15;101128.09;4917759;29;20063;-59
2023/06/29 03:37:34;;;;;;;5.57;3.00;;;;;;;26.83;52.01;101128.09;4917661;29;20060;-59
2023/06/29 03:40:02;;;;;;;4.65;2.63;;;;;;;26.83;51.98;101133.53;4917906;29;20052;-59
2023/06/29 03:42:29;;;;;;;5.88;3.33;;;;;;;26.82;51.99;101142.72;4917784;29;20377;-59
2023/06/29 03:44:56;;;;;;;3.90;2.83;;;;;;;26.81;52.11;101138.28;4917928;29;20048;-59
2023/06/29 03:47:24;;;;;;;4.53;3.10;;;;;;;26.82;52.15;101140.84;4917853;29;20070;-59
2023/06/29 03:49:51;;;;;;;4.03;2.90;;;;;;;26.82;52.00;101131.84;4917572;29;20415;-59
2023/06/29 03:52:19;;;;;;;4.55;3.15;;;;;;;26.81;52.12;101141.84;4917879;29;20051;-59
2023/06/29 03:54:48;;;;;;;5.22;3.47;;;;;;;26.81;52.15;101138.28;4917573;29;20052;-58
2023/06/29 03:57:16;;;;;;;5.45;3.45;;;;;;;26.80;52.25;101137.44;4917931;29;20044;-57
2023/06/29 03:59:43;;;;;;;5.57;3.08;;;;;;;26.81;52.19;101141.84;4917589;29;20123;-58
2023/06/29 04:02:10;;;;;;;4.57;3.10;;;;;;;26.81;52.18;101144.56;4917204;29;20044;-58
2023/06/29 04:04:38;;;;;;;3.90;2.95;;;;;;;26.81;52.29;101146.44;4917503;29;20047;-59
2023/06/29 04:07:06;;;;;;;6.15;3.10;;;;;;;26.81;52.30;101141.00;4917558;29;20074;-59
2023/06/29 04:09:33;;;;;;;6.15;3.47;;;;;;;26.79;52.32;101143.91;4917573;29;20075;-59
2023/06/29 04:12:01;;;;;;;5.63;3.35;;;;;;;26.79;52.20;101146.63;4917480;29;20051;-59
2023/06/29 04:14:28;;;;;;;5.07;2.63;;;;;;;26.79;52.29;101151.19;4917378;29;20051;-58
2023/06/29 04:16:57;;;;;;;5.38;3.75;;;;;;;26.80;52.36;101155.59;4917375;29;20528;-59
2023/06/29 04:19:24;;;;;;;4.50;3.42;;;;;;;26.80;52.30;101156.44;4917433;29;20061;-60
2023/06/29 04:21:51;;;;;;;6.22;2.90;;;;;;;26.79;52.22;101156.63;4917315;29;20068;-59
2023/06/29 04:24:19;;;;;;;4.45;3.03;;;;;;;26.79;52.42;101159.34;4917446;29;20051;-59
2023/06/29 04:26:46;;;;;;;5.75;2.60;;;;;;;26.78;52.24;101163.06;4917347;29;20504;-59
2023/06/29 04:29:14;;;;;;;4.25;2.95;;;;;;;26.79;52.09;101156.63;4917354;29;20055;-59
2023/06/29 04:31:41;;;;;;;4.72;3.00;;;;;;;26.77;52.04;101164.09;4916250;29;20049;-59
2023/06/29 04:34:09;;;;;;;5.78;3.13;;;;;;;26.78;52.43;101160.34;4917344;29;20068;-59
2023/06/29 04:36:36;;;;;;;4.63;2.58;;;;;;;26.75;52.31;101172.44;4917246;29;20048;-59
2023/06/29 04:39:03;;;;;;;4.22;3.20;;;;;;;26.76;52.19;101173.28;4917097;29;20051;-59
2023/06/29 04:41:31;;;;;;;4.80;2.92;;;;;;;26.76;52.33;101175.97;4917000;29;20040;-59
2023/06/29 04:43:59;;;;;;;5.70;2.92;;;;;;;26.75;52.56;101172.44;4916963;29;20052;-59
2023/06/29 04:46:31;;;;;;;5.95;3.05;;;;;;;26.75;52.41;101168.88;4917175;29;20056;-57
2023/06/29 04:49:04;;;;;;;4.75;3.10;;;;;;;26.73;52.54;101169.03;4916087;29;20064;-57
2023/06/29 04:51:36;;;;;;;3.70;2.70;;;;;;;26.74;52.79;101167.16;4917208;29;20056;-57
2023/06/29 04:54:05;;;;;;;4.55;3.00;;;;;;;26.74;52.72;101167.16;4917067;29;20469;-58
2023/06/29 04:56:33;;;;;;;4.28;3.00;;;;;;;26.75;52.51;101163.44;4917240;29;20055;-59
2023/06/29 04:59:00;;;;;;;6.05;3.83;;;;;;;26.74;52.71;101159.88;4916923;29;20051;-59
2023/06/29 05:01:27;;;;;;;5.57;3.40;;;;;;;26.75;52.81;101163.44;4917079;29;20052;-59
2023/06/29 05:03:55;;;;;;;5.53;3.35;;;;;;;26.75;52.73;101163.44;4916925;29;20048;-59
2023/06/29 05:06:22;;;;;;;4.85;2.95;;;;;;;26.75;53.03;101166.16;4917101;29;20067;-59
2023/06/29 05:08:49;;;;;;;5.20;3.25;;;;;;;26.75;52.83;101168.88;4915564;29;20056;-59
2023/06/29 05:11:17;;;;;;;4.55;3.22;;;;;;;26.74;53.08;101168.03;4916990;29;20060;-59
2023/06/29 05:13:44;;;;;;;6.43;3.63;;;;;;;26.73;52.94;101165.47;4916909;29;20044;-59
2023/06/29 05:16:12;;;;;;;4.80;3.42;;;;;;;26.72;52.93;101171.91;4916888;29;20056;-57
2023/06/29 05:18:39;;;;;;;5.03;3.55;;;;;;;26.72;52.96;101167.34;4916871;29;20390;-57
2023/06/29 05:21:07;;;;;;;6.47;4.30;;;;;;;26.71;53.14;101183.81;4916876;29;20401;-57
2023/06/29 05:23:35;;;;;;;5.38;3.25;;;;;;;26.69;52.92;101181.25;4919051;29;20052;-58
2023/06/29 05:26:02;;;;;;;5.07;3.60;;;;;;;26.69;52.95;101174.97;4920267;29;20416;-58
2023/06/29 05:28:29;;;;;;;5.10;3.90;;;;;;;26.69;52.95;101185.84;4920217;29;20044;-58
2023/06/29 05:30:57;;;;;;;5.18;3.58;;;;;;;26.70;52.87;101187.53;4920366;29;20048;-58
2023/06/29 05:33:24;;;;;;;5.47;3.85;;;;;;;26.71;53.04;101187.38;4920060;29;20044;-58
2023/06/29 05:35:51;;;;;;;4.78;3.20;;;;;;;26.73;53.03;101193.47;4920151;29;20052;-58
2023/06/29 05:38:19;;;;;;;5.32;3.25;;;;;;;26.74;52.84;101194.31;4919953;29;20048;-58
2023/06/29 05:40:46;;;;;;;6.10;3.67;;;;;;;26.75;52.83;101190.59;4920007;29;20059;-58
2023/06/29 05:43:13;;;;;;;5.63;3.72;;;;;;;26.76;53.11;101193.13;4919793;29;20055;-58
2023/06/29 05:45:41;;;;;;;4.60;3.45;;;;;;;26.78;53.14;101199.25;4919933;29;20056;-59
2023/06/29 05:48:08;;;;;;;4.80;3.50;;;;;;;26.79;53.15;101205.53;4919857;29;20048;-60
2023/06/29 05:50:35;;;;;;;4.47;3.55;;;;;;;26.80;53.03;101199.06;4919670;29;20476;-59
2023/06/29 05:53:04;;;;;;;4.22;3.20;;;;;;;26.80;53.13;101197.19;4919742;29;20485;-59
2023/06/29 05:55:31;;;;;;;4.68;3.67;;;;;;;26.78;53.15;101204.69;4919779;29;20063;-59
2023/06/29 05:57:59;;;;;;;4.22;3.42;;;;;;;26.78;53.05;101209.25;4919740;29;20055;-60
2023/06/29 06:00:26;;;;;;;6.00;3.65;;;;;;;26.79;52.94;101210.97;4919630;29;20053;-59
2023/06/29 06:02:54;;;;;;;5.15;3.53;;;;;;;26.79;52.88;101216.41;4919442;29;20052;-60
2023/06/29 06:05:21;;;;;;;5.28;3.70;;;;;;;26.78;52.95;101212.84;4919451;29;20059;-57
2023/06/29 06:07:48;;;;;;;4.05;2.92;;;;;;;26.76;53.07;101208.59;4919387;29;20063;-58
2023/06/29 06:10:16;;;;;;;5.35;2.97;;;;;;;26.78;52.99;101211.97;4919355;29;20048;-58
2023/06/29 06:12:43;;;;;;;6.65;3.35;;;;;;;26.77;52.85;101211.13;4919497;29;20078;-57
2023/06/29 06:15:13;;;;;;;5.18;3.47;;;;;;;26.75;52.94;101207.75;4919121;29;20052;-58
2023/06/29 06:17:41;;;;;;;4.45;2.88;;;;;;;26.78;53.08;101211.97;4919260;29;20480;-58
2023/06/29 06:20:09;;;;;;;6.70;3.40;;;;;;;26.77;53.05;101205.69;4919191;29;20048;-58
2023/06/29 06:22:37;;;;;;;4.40;3.40;;;;;;;26.74;53.16;101214.19;4919168;29;20405;-58
2023/06/29 06:25:04;;;;;;;4.10;3.45;;;;;;;26.73;53.08;101204.31;4918939;29;20044;-59
2023/06/29 06:27:32;;;;;;;5.63;3.20;;;;;;;26.73;52.83;101215.19;4918581;29;20385;-59
2023/06/29 06:29:59;;;;;;;5.05;3.83;;;;;;;26.73;52.61;101214.34;4918674;29;20055;-59
2023/06/29 06:32:27;;;;;;;4.70;3.25;;;;;;;26.73;52.44;101214.34;4918920;29;20052;-59
2023/06/29 06:34:54;;;;;;;5.47;3.38;;;;;;;26.75;52.49;101213.16;4917806;29;20067;-59
2023/06/29 06:37:22;;;;;;;6.00;3.47;;;;;;;26.76;52.47;101214.00;4918839;29;20071;-59
2023/06/29 06:39:49;;;;;;;6.05;3.47;;;;;;;26.76;52.46;101206.72;4918773;29;20044;-59
2023/06/29 06:42:16;;;;;;;5.72;3.13;;;;;;;26.75;52.21;101209.59;4918778;29;20052;-60
2023/06/29 06:44:55;;;;;;;4.78;2.85;;;;;;;26.62;50.78;101210.97;4918637;29;20055;-56
2023/06/29 06:47:23;;;;;;;4.93;2.67;;;;;;;26.49;50.70;101202.47;4918718;29;20055;-59
2023/06/29 06:49:50;;;;;;;4.72;2.70;;;;;;;26.33;50.39;101197.03;4918562;29;20060;-58
2023/06/29 06:52:18;;;;;;;5.35;3.03;;;;;;;26.20;50.73;101207.53;4918691;29;20044;-58
2023/06/29 06:54:45;;;;;;;6.47;3.05;;;;;;;26.09;50.97;101201.44;4918776;29;20503;-59
2023/06/29 06:57:12;;;;;;;4.43;2.75;;;;;;;26.04;51.46;101203.78;4918518;29;20059;-61
2023/06/29 06:59:40;;;;;;;3.88;2.47;;;;;;;26.03;51.54;101206.66;4911463;29;20055;-66
2023/06/29 07:02:07;;;;;;;4.43;2.60;;;;;;;25.99;51.68;101203.44;4901686;29;20052;-66
2023/06/29 07:04:35;;;;;;;6.72;3.05;;;;;;;26.00;51.29;101199.69;4908725;29;20045;-59
2023/06/29 07:07:03;;;;;;;3.55;2.58;;;;;;;25.97;51.04;101201.91;4899283;29;20052;-60
2023/06/29 07:09:30;;;;;;;5.30;2.30;;;;;;;25.98;51.07;101199.03;4900301;29;20393;-59
2023/06/29 07:11:59;;;;;;;3.13;2.05;;;;;;;25.99;50.90;101200.72;4899121;29;20056;-59
2023/06/29 07:14:26;;;;;;;4.72;2.58;;;;;;;25.99;50.60;101202.59;4898781;29;20048;-64
2023/06/29 07:16:55;;;;;;;4.07;2.63;;;;;;;26.00;50.50;101207.84;4928876;29;20068;-61
2023/06/29 07:19:23;;;;;;;3.85;2.10;;;;;;;25.98;50.65;101204.47;4898881;29;20052;-59
2023/06/29 07:21:54;;;;;;;3.15;2.00;;;;;;;26.00;50.33;101205.13;4899025;29;20045;-59
2023/06/29 07:24:24;;;;;;;4.20;2.10;;;;;;;26.03;49.79;101204.81;4898869;29;20118;-58
2023/06/29 07:26:52;;;;;;;3.28;1.92;;;;;;;26.05;49.23;101202.78;4898836;29;20059;-62
2023/06/29 07:29:20;;;;;;;3.67;2.00;;;;;;;26.09;48.88;101193.28;4898741;29;20056;-62
2023/06/29 07:31:47;;;;;;;4.60;1.88;;;;;;;26.14;48.42;101195.50;4898907;29;20052;-64
2023/06/29 07:34:14;;;;;;;3.70;1.90;;;;;;;26.19;48.17;101193.13;4898727;29;20389;-65
2023/06/29 07:36:41;;;;;;;3.05;1.83;;;;;;;26.24;47.90;101200.75;4898754;29;20055;-58
2023/06/29 07:39:09;;;;;;;3.35;1.95;;;;;;;26.29;47.05;101195.66;4898732;29;20049;-59
2023/06/29 07:41:36;;;;;;;3.45;1.75;;;;;;;26.30;46.69;101195.50;4898836;29;20056;-59
2023/06/29 07:44:04;;;;;;;2.75;1.65;;;;;;;26.35;46.60;101192.28;4898356;29;20044;-58
2023/06/29 07:46:31;;;;;;;3.50;1.67;;;;;;;26.39;46.28;101196.34;4898441;29;20049;-58
2023/06/29 07:48:59;;;;;;;3.47;1.88;;;;;;;26.44;46.52;101193.97;4898709;29;20052;-65
2023/06/29 07:51:32;;;;;;;4.20;1.95;;;;;;;26.52;46.53;101191.28;4898460;29;20057;-63
2023/06/29 07:54:00;;;;;;;;;;;;;;;26.55;46.31;101190.09;4899007;29;20048;-66
2023/06/29 07:56:28;;;;;;;2.83;1.70;;;;;;;26.61;45.35;101190.25;4898718;29;19934;-60
2023/06/29 07:59:16;;;;;;;2.47;1.58;;;;;;;26.66;44.58;101191.59;4898591;29;20057;-53
2023/06/29 08:01:48;;;;;;;3.15;1.50;;;;;;;26.70;44.19;101190.25;4898600;29;20118;-57
2023/06/29 08:04:16;;;;;;;3.03;1.30;;;;;;;26.74;43.67;101186.16;4898178;29;20048;-58
2023/06/29 08:07:03;;;;;;;2.30;1.25;;;;;;;26.77;42.75;101181.22;4898011;29;20049;-63
2023/06/29 08:09:35;;;;;;;2.28;1.20;;;;;;;26.79;41.77;101178.38;4898365;29;20057;-61
2023/06/29 08:12:03;;;;;;;2.38;1.30;;;;;;;26.82;41.75;101180.75;4914715;29;20048;-63
2023/06/29 08:14:32;;;;;;;2.67;1.30;;;;;;;26.85;41.52;101191.25;4917080;29;20050;-64
2023/06/29 08:17:00;;;;;;;2.72;1.63;;;;;;;26.89;41.39;101187.16;4916488;29;20060;-66
2023/06/29 08:19:27;;;;;;;3.95;1.63;;;;;;;26.93;41.25;101179.50;4916923;29;20047;-63
2023/06/29 08:21:55;;;;;;;2.25;1.30;;;;;;;26.94;40.88;101184.78;4917000;29;20048;-63
2023/06/29 08:24:22;;;;;;;3.30;1.50;;;;;;;26.96;40.73;101181.88;4916874;29;20052;-56
2023/06/29 08:26:50;;;;;;;2.88;1.35;;;;;;;26.97;41.21;101184.41;4916762;29;20052;-57
2023/06/29 08:29:19;;;;;;;2.60;1.02;;;;;;;26.99;41.55;101174.25;4916901;29;20421;-57
2023/06/29 08:31:46;;;;;;;3.42;1.27;;;;;;;27.03;42.06;101174.75;4916852;29;20048;-60
2023/06/29 08:34:14;;;;;;;3.15;1.67;;;;;;;27.07;42.51;101179.66;4916883;29;20044;-62
2023/06/29 08:36:41;;;;;;;2.55;1.42;;;;;;;27.13;42.76;101166.41;4916972;29;20048;-60
2023/06/29 08:39:10;;;;;;;4.07;1.48;;;;;;;27.17;42.78;101163.16;4917090;29;20059;-55
2023/06/29 08:41:37;;;;;;;3.70;1.38;;;;;;;27.21;43.44;101169.09;4916671;29;20048;-60
2023/06/29 08:44:06;;;;;;;2.58;1.60;;;;;;;27.21;43.45;101175.38;4916704;29;20048;-58
2023/06/29 08:46:35;;;;;;;3.28;1.25;;;;;;;27.21;43.83;101169.09;4904361;29;20052;-64
2023/06/29 08:49:06;;;;;;;5.05;1.73;;;;;;;27.21;44.09;101174.53;4927209;29;20057;-65
2023/06/29 08:51:38;;;;;;;3.88;1.70;;;;;;;27.22;43.97;101166.19;4897719;29;20052;-66
2023/06/29 08:54:07;;;;;;;2.60;1.60;;;;;;;27.20;43.88;101162.81;4898045;29;20048;-63
2023/06/29 08:56:34;;;;;;;3.67;1.73;;;;;;;27.25;44.37;101163.13;4897871;29;20053;-66
2023/06/29 08:59:02;;;;;;;3.65;1.40;;;;;;;27.28;44.24;101176.38;4901079;29;20053;-64
2023/06/29 09:01:30;;;;;;;3.22;1.70;;;;;;;27.32;44.40;101171.44;4901606;29;20056;-64
2023/06/29 09:03:58;;;;;;;4.70;1.60;;;;;;;27.31;44.58;101176.03;4901636;29;20060;-64
2023/06/29 09:06:26;;;;;;;2.92;1.58;;;;;;;27.32;43.68;101176.88;4901600;29;20059;-63
2023/06/29 09:08:56;;;;;;;3.88;1.73;;;;;;;27.34;42.93;101175.66;4901382;29;20059;-64
2023/06/29 09:11:23;;;;;;;3.78;1.70;;;;;;;27.37;42.87;101169.03;4901080;29;20053;-66
2023/06/29 09:13:51;;;;;;;5.25;1.73;;;;;;;27.39;43.32;101166.13;4901113;29;20053;-66
2023/06/29 09:16:18;;;;;;;2.85;1.60;;;;;;;27.41;43.17;101162.22;4901117;29;20060;-66
2023/06/29 09:18:50;;;;;;;4.50;1.38;;;;;;;27.44;43.32;101158.31;4900986;29;20394;-65
2023/06/29 09:21:21;;;;;;;3.47;1.75;;;;;;;27.45;43.10;101157.25;4901144;29;20053;-64
2023/06/29 09:23:49;;;;;;;3.13;1.90;;;;;;;27.44;43.36;101156.41;4901170;29;20056;-64
2023/06/29 09:26:17;;;;;;;2.75;1.80;;;;;;;27.45;43.59;101149.94;4900994;29;20048;-58
2023/06/29 09:28:46;;;;;;;2.67;1.65;;;;;;;27.46;43.32;101151.63;4900799;29;20405;-59
2023/06/29 09:31:14;;;;;;;2.95;1.50;;;;;;;27.47;43.54;101149.78;4900706;29;20064;-58
2023/06/29 09:33:41;;;;;;;3.03;1.60;;;;;;;27.46;43.80;101146.19;4900967;29;20500;-54
2023/06/29 09:36:08;;;;;;;4.00;1.50;;;;;;;27.45;43.41;101165.41;4900858;29;20048;-58
2023/06/29 09:38:37;;;;;;;2.45;1.65;;;;;;;27.42;43.65;101158.47;4900776;29;20049;-61
2023/06/29 09:41:07;;;;;;;2.70;1.40;;;;;;;27.43;43.32;101145.69;4901216;29;20064;-59
2023/06/29 09:43:34;;;;;;;4.15;1.58;;;;;;;27.44;44.87;101163.75;4900892;29;20063;-54
2023/06/29 09:46:05;;;;;;;4.00;2.10;;;;;;;27.41;45.61;101158.66;4900781;29;20049;-56
2023/06/29 09:48:32;;;;;;;3.20;1.77;;;;;;;27.37;45.80;101150.00;4900578;29;20048;-56
2023/06/29 09:51:04;;;;;;;3.05;1.90;;;;;;;27.35;45.67;101154.78;4900085;29;20512;-58
2023/06/29 09:53:33;;;;;;;3.05;1.60;;;;;;;27.35;45.15;101146.63;4900401;29;20052;-58
2023/06/29 09:56:02;;;;;;;2.63;1.60;;;;;;;27.36;43.24;101151.88;4900479;29;20048;-58
2023/06/29 09:58:30;;;;;;;3.58;1.92;;;;;;;27.36;42.92;101143.72;4914865;29;20056;-53
2023/06/29 10:00:59;;;;;;;3.83;1.70;;;;;;;27.35;43.11;101152.06;4911483;29;20044;-52
2023/06/29 10:03:27;;;;;;;3.05;1.95;;;;;;;27.36;42.88;101134.72;4900302;29;20072;-60
2023/06/29 10:06:06;;;;;;;3.67;1.58;;;;;;;27.39;42.63;101141.66;4899735;29;20045;-56
2023/06/29 10:08:35;;;;;;;2.20;1.50;;;;;;;27.38;43.39;101145.41;4900035;29;20060;-57
2023/06/29 10:11:04;;;;;;;3.30;1.55;;;;;;;27.35;43.45;101131.16;4900028;29;20056;-56
2023/06/29 10:13:42;;;;;;;2.22;1.38;;;;;;;27.34;42.93;101144.91;4904365;29;20052;-57
2023/06/29 10:16:12;;;;;;;4.32;1.83;;;;;;;27.35;42.72;101133.03;4918964;29;20055;-63
2023/06/29 10:18:43;;;;;;;2.53;1.77;;;;;;;27.34;42.76;101131.31;4918685;29;20060;-63
2023/06/29 10:21:11;;;;;;;3.27;1.80;;;;;;;27.31;43.21;101126.25;4918724;29;20393;-62
2023/06/29 10:23:41;;;;;;;2.72;1.50;;;;;;;27.30;43.42;101124.53;4918899;29;20613;-62
2023/06/29 10:26:10;;;;;;;3.10;2.00;;;;;;;27.28;43.92;101121.16;4918658;29;20509;-56
2023/06/29 10:28:38;;;;;;;3.90;1.70;;;;;;;27.25;44.26;101127.78;4918828;29;20048;-53
2023/06/29 10:31:06;;;;;;;3.10;1.65;;;;;;;27.26;44.56;101123.19;4918732;29;20044;-53
2023/06/29 10:33:45;;;;;;;4.80;2.05;;;;;;;27.26;43.73;101117.75;4918606;29;20044;-56
2023/06/29 10:36:15;;;;;;;2.92;1.60;;;;;;;27.28;41.96;101115.72;4918695;29;20048;-57
2023/06/29 10:38:43;;;;;;;2.90;1.65;;;;;;;27.27;41.57;101127.63;4919022;29;20048;-57
2023/06/29 10:41:28;;;;;;;3.10;1.55;;;;;;;27.27;41.20;101119.47;4918449;29;20392;-57
2023/06/29 10:43:56;;;;;;;2.60;1.40;;;;;;;27.28;41.40;101126.59;4918508;29;20056;-57
2023/06/29 10:46:49;;;;;;;3.55;1.98;;;;;;;27.30;41.88;101119.09;4918543;29;20051;-56
2023/06/29 10:49:24;;;;;;;2.95;1.50;;;;;;;27.29;42.07;101112.81;4918485;29;20048;-57
2023/06/29 10:51:54;;;;;;;3.50;1.85;;;;;;;27.30;41.44;101102.78;4918071;29;20401;-57
2023/06/29 10:54:26;;;;;;;2.72;1.60;;;;;;;27.33;41.15;101105.16;4918139;29;20078;-57
2023/06/29 10:57:05;;;;;;;3.90;1.83;;;;;;;27.33;40.79;101100.56;4918040;29;20059;-57
2023/06/29 10:59:34;;;;;;;2.78;1.38;;;;;;;27.33;40.62;101097.00;4918474;29;20495;-57
2023/06/29 11:02:03;;;;;;;2.60;1.33;;;;;;;27.34;41.06;101093.25;4914678;29;20371;-56
2023/06/29 11:04:31;;;;;;;2.60;1.63;;;;;;;27.33;41.44;101095.13;4899516;29;20071;-59
2023/06/29 11:07:06;;;;;;;3.47;1.83;;;;;;;27.33;41.20;101097.84;4899147;29;20417;-63
2023/06/29 11:09:34;;;;;;;2.45;1.60;;;;;;;27.32;40.84;101090.72;4899264;29;20061;-63
2023/06/29 11:12:02;;;;;;;4.68;1.92;;;;;;;27.32;41.11;101087.16;4898891;29;20080;-63
2023/06/29 11:14:36;;;;;;;2.92;1.80;;;;;;;27.31;41.30;101075.44;4901002;29;20076;-59
2023/06/29 11:17:07;;;;;;;2.67;1.50;;;;;;;27.31;41.48;101078.16;4903143;29;20083;-57
2023/06/29 11:19:35;;;;;;;2.63;1.77;;;;;;;27.32;41.16;101085.28;4898750;29;20061;-57
2023/06/29 11:22:02;;;;;;;2.67;1.85;;;;;;;27.32;41.38;101073.56;4897998;29;20051;-57
2023/06/29 11:24:30;;;;;;;4.43;1.80;;;;;;;27.40;40.23;101081.66;4898970;29;20405;-57
2023/06/29 11:26:58;;;;;;;3.63;1.88;;;;;;;27.41;40.43;101066.19;4898843;29;20076;-59
2023/06/29 11:29:28;;;;;;;2.85;1.60;;;;;;;27.42;41.53;101066.00;4898931;29;20075;-60
2023/06/29 11:31:55;;;;;;;2.83;1.60;;;;;;;27.42;41.54;101063.28;4898914;29;20052;-60